sim
Sign-in with your pilot id or email,
or register
Callsign
Passwort

Schedule Details

Flight Number: OEO4631
Departure: Edinburgh Airport (EGPH) at 08:15
Arrival: Munich Airport (EDDM) at 10:30

Weather Information
Getting current METAR information for EGPH 280850Z VRB03KT 9999 BKN015 10/08 Q1009
Getting current METAR information for EDDM 280850Z VRB01KT 9999 -RA FEW005 BKN045 07/06 Q1011 NOSIG

Schedule Frequency

Route Map